sensor_id;sensor_type;location;lat;lon;timestamp;P1;durP1;ratioP1;P2;durP2;ratioP2
54145;SDS011;65909;49.422;7.738;2023-04-09T00:02:11;11.52;;;7.43;;
54145;SDS011;65909;49.422;7.738;2023-04-09T00:04:37;14.02;;;7.05;;
54145;SDS011;65909;49.422;7.738;2023-04-09T00:07:02;11.45;;;7.05;;
54145;SDS011;65909;49.422;7.738;2023-04-09T00:09:28;11.80;;;6.65;;
54145;SDS011;65909;49.422;7.738;2023-04-09T00:11:53;10.63;;;6.72;;
54145;SDS011;65909;49.422;7.738;2023-04-09T00:14:18;11.52;;;7.10;;
54145;SDS011;65909;49.422;7.738;2023-04-09T00:16:44;11.82;;;6.82;;
54145;SDS011;65909;49.422;7.738;2023-04-09T00:19:09;11.80;;;7.40;;
54145;SDS011;65909;49.422;7.738;2023-04-09T00:21:35;10.52;;;6.47;;
54145;SDS011;65909;49.422;7.738;2023-04-09T00:24:01;13.23;;;6.95;;
54145;SDS011;65909;49.422;7.738;2023-04-09T00:26:26;11.50;;;6.32;;
54145;SDS011;65909;49.422;7.738;2023-04-09T00:28:52;9.63;;;6.80;;
54145;SDS011;65909;49.422;7.738;2023-04-09T00:31:17;12.70;;;6.82;;
54145;SDS011;65909;49.422;7.738;2023-04-09T00:33:42;12.40;;;7.22;;
54145;SDS011;65909;49.422;7.738;2023-04-09T00:36:08;13.50;;;7.43;;
54145;SDS011;65909;49.422;7.738;2023-04-09T00:38:33;11.90;;;7.75;;
54145;SDS011;65909;49.422;7.738;2023-04-09T00:40:59;11.98;;;7.10;;
54145;SDS011;65909;49.422;7.738;2023-04-09T00:43:24;11.13;;;6.80;;
54145;SDS011;65909;49.422;7.738;2023-04-09T00:45:50;15.05;;;7.10;;
54145;SDS011;65909;49.422;7.738;2023-04-09T00:48:16;14.27;;;7.13;;
54145;SDS011;65909;49.422;7.738;2023-04-09T00:50:41;13.15;;;7.22;;
54145;SDS011;65909;49.422;7.738;2023-04-09T00:53:07;14.68;;;7.50;;
54145;SDS011;65909;49.422;7.738;2023-04-09T00:55:35;12.52;;;6.90;;
54145;SDS011;65909;49.422;7.738;2023-04-09T00:58:00;13.48;;;8.02;;
54145;SDS011;65909;49.422;7.738;2023-04-09T01:00:26;12.75;;;6.95;;
54145;SDS011;65909;49.422;7.738;2023-04-09T01:02:52;13.70;;;6.75;;
54145;SDS011;65909;49.422;7.738;2023-04-09T01:05:20;13.90;;;8.05;;
54145;SDS011;65909;49.422;7.738;2023-04-09T01:07:53;13.07;;;6.97;;
54145;SDS011;65909;49.422;7.738;2023-04-09T01:13:54;13.95;;;7.07;;
54145;SDS011;65909;49.422;7.738;2023-04-09T01:18:35;13.73;;;7.45;;
54145;SDS011;65909;49.422;7.738;2023-04-09T01:21:13;13.95;;;6.57;;
54145;SDS011;65909;49.422;7.738;2023-04-09T01:26:40;13.23;;;7.28;;
54145;SDS011;65909;49.422;7.738;2023-04-09T01:29:01;11.57;;;7.50;;
54145;SDS011;65909;49.422;7.738;2023-04-09T01:31:29;10.70;;;6.70;;
54145;SDS011;65909;49.422;7.738;2023-04-09T01:33:57;13.90;;;7.43;;
54145;SDS011;65909;49.422;7.738;2023-04-09T01:36:24;12.27;;;7.47;;
54145;SDS011;65909;49.422;7.738;2023-04-09T01:38:52;15.85;;;7.60;;
54145;SDS011;65909;49.422;7.738;2023-04-09T01:41:20;15.77;;;8.63;;
54145;SDS011;65909;49.422;7.738;2023-04-09T01:43:50;13.02;;;7.10;;
54145;SDS011;65909;49.422;7.738;2023-04-09T01:46:16;13.48;;;6.93;;
54145;SDS011;65909;49.422;7.738;2023-04-09T01:48:42;16.58;;;8.20;;
54145;SDS011;65909;49.422;7.738;2023-04-09T01:51:09;11.80;;;6.88;;
54145;SDS011;65909;49.422;7.738;2023-04-09T01:53:37;14.77;;;8.20;;
54145;SDS011;65909;49.422;7.738;2023-04-09T01:56:04;13.63;;;7.28;;
54145;SDS011;65909;49.422;7.738;2023-04-09T01:58:29;15.88;;;7.78;;
54145;SDS011;65909;49.422;7.738;2023-04-09T02:01:05;11.80;;;6.75;;
54145;SDS011;65909;49.422;7.738;2023-04-09T02:03:45;16.10;;;7.30;;
54145;SDS011;65909;49.422;7.738;2023-04-09T02:06:18;13.75;;;6.88;;
54145;SDS011;65909;49.422;7.738;2023-04-09T02:08:55;13.63;;;7.55;;
54145;SDS011;65909;49.422;7.738;2023-04-09T02:11:24;14.32;;;7.40;;
54145;SDS011;65909;49.422;7.738;2023-04-09T02:13:52;13.75;;;7.20;;
54145;SDS011;65909;49.422;7.738;2023-04-09T02:16:21;14.02;;;7.78;;
54145;SDS011;65909;49.422;7.738;2023-04-09T02:18:48;12.75;;;7.45;;
54145;SDS011;65909;49.422;7.738;2023-04-09T02:21:18;13.52;;;7.43;;
54145;SDS011;65909;49.422;7.738;2023-04-09T02:23:43;15.07;;;8.13;;
54145;SDS011;65909;49.422;7.738;2023-04-09T02:26:09;14.55;;;8.10;;
54145;SDS011;65909;49.422;7.738;2023-04-09T02:28:34;19.30;;;8.32;;
54145;SDS011;65909;49.422;7.738;2023-04-09T02:30:59;13.57;;;7.10;;
54145;SDS011;65909;49.422;7.738;2023-04-09T02:33:25;16.17;;;8.55;;
54145;SDS011;65909;49.422;7.738;2023-04-09T02:35:50;14.95;;;8.25;;
54145;SDS011;65909;49.422;7.738;2023-04-09T02:38:15;13.75;;;7.65;;
54145;SDS011;65909;49.422;7.738;2023-04-09T02:40:41;14.88;;;8.00;;
54145;SDS011;65909;49.422;7.738;2023-04-09T02:43:07;12.10;;;6.75;;
54145;SDS011;65909;49.422;7.738;2023-04-09T02:45:33;14.35;;;8.07;;
54145;SDS011;65909;49.422;7.738;2023-04-09T02:47:58;13.15;;;7.05;;
54145;SDS011;65909;49.422;7.738;2023-04-09T02:50:24;17.40;;;9.40;;
54145;SDS011;65909;49.422;7.738;2023-04-09T02:52:49;15.35;;;7.65;;
54145;SDS011;65909;49.422;7.738;2023-04-09T02:55:15;17.05;;;8.13;;
54145;SDS011;65909;49.422;7.738;2023-04-09T02:57:40;16.05;;;8.13;;
54145;SDS011;65909;49.422;7.738;2023-04-09T03:00:06;14.75;;;8.48;;
54145;SDS011;65909;49.422;7.738;2023-04-09T03:02:32;16.33;;;7.65;;
54145;SDS011;65909;49.422;7.738;2023-04-09T03:04:57;12.40;;;6.78;;
54145;SDS011;65909;49.422;7.738;2023-04-09T03:07:23;13.27;;;7.53;;
54145;SDS011;65909;49.422;7.738;2023-04-09T03:09:48;14.27;;;7.80;;
54145;SDS011;65909;49.422;7.738;2023-04-09T03:12:13;13.77;;;8.25;;
54145;SDS011;65909;49.422;7.738;2023-04-09T03:14:39;18.25;;;8.35;;
54145;SDS011;65909;49.422;7.738;2023-04-09T03:17:04;17.40;;;8.30;;
54145;SDS011;65909;49.422;7.738;2023-04-09T03:19:30;14.43;;;7.38;;
54145;SDS011;65909;49.422;7.738;2023-04-09T03:21:55;15.52;;;8.50;;
54145;SDS011;65909;49.422;7.738;2023-04-09T03:24:20;15.18;;;8.05;;
54145;SDS011;65909;49.422;7.738;2023-04-09T03:26:46;15.30;;;8.55;;
54145;SDS011;65909;49.422;7.738;2023-04-09T03:29:11;17.30;;;9.30;;
54145;SDS011;65909;49.422;7.738;2023-04-09T03:31:36;14.13;;;7.20;;
54145;SDS011;65909;49.422;7.738;2023-04-09T03:34:02;16.77;;;8.45;;
54145;SDS011;65909;49.422;7.738;2023-04-09T03:36:27;13.50;;;7.55;;
54145;SDS011;65909;49.422;7.738;2023-04-09T03:38:53;14.88;;;7.72;;
54145;SDS011;65909;49.422;7.738;2023-04-09T03:41:18;15.32;;;8.77;;
54145;SDS011;65909;49.422;7.738;2023-04-09T03:43:43;13.57;;;8.00;;
54145;SDS011;65909;49.422;7.738;2023-04-09T03:46:15;12.45;;;6.65;;
54145;SDS011;65909;49.422;7.738;2023-04-09T03:48:41;15.35;;;8.20;;
54145;SDS011;65909;49.422;7.738;2023-04-09T03:51:11;15.15;;;8.23;;
54145;SDS011;65909;49.422;7.738;2023-04-09T03:53:38;18.23;;;8.25;;
54145;SDS011;65909;49.422;7.738;2023-04-09T03:56:03;16.20;;;7.95;;
54145;SDS011;65909;49.422;7.738;2023-04-09T03:58:29;13.98;;;7.72;;
54145;SDS011;65909;49.422;7.738;2023-04-09T04:00:54;15.82;;;8.88;;
54145;SDS011;65909;49.422;7.738;2023-04-09T04:03:20;16.95;;;7.35;;
54145;SDS011;65909;49.422;7.738;2023-04-09T04:05:45;14.27;;;8.52;;
54145;SDS011;65909;49.422;7.738;2023-04-09T04:08:11;16.08;;;9.00;;
54145;SDS011;65909;49.422;7.738;2023-04-09T04:10:36;13.55;;;8.70;;
54145;SDS011;65909;49.422;7.738;2023-04-09T04:13:01;16.63;;;8.07;;
54145;SDS011;65909;49.422;7.738;2023-04-09T04:15:27;14.85;;;8.02;;
54145;SDS011;65909;49.422;7.738;2023-04-09T04:17:53;15.90;;;8.30;;
54145;SDS011;65909;49.422;7.738;2023-04-09T04:20:18;15.65;;;8.02;;
54145;SDS011;65909;49.422;7.738;2023-04-09T04:22:44;15.50;;;8.13;;
54145;SDS011;65909;49.422;7.738;2023-04-09T04:25:09;19.63;;;8.57;;
54145;SDS011;65909;49.422;7.738;2023-04-09T04:27:35;15.25;;;7.45;;
54145;SDS011;65909;49.422;7.738;2023-04-09T04:30:00;15.80;;;8.20;;
54145;SDS011;65909;49.422;7.738;2023-04-09T04:32:26;14.85;;;8.27;;
54145;SDS011;65909;49.422;7.738;2023-04-09T04:34:52;15.18;;;8.25;;
54145;SDS011;65909;49.422;7.738;2023-04-09T04:37:17;14.98;;;7.63;;
54145;SDS011;65909;49.422;7.738;2023-04-09T04:39:42;14.73;;;7.47;;
54145;SDS011;65909;49.422;7.738;2023-04-09T04:42:08;18.90;;;8.90;;
54145;SDS011;65909;49.422;7.738;2023-04-09T04:44:33;15.50;;;8.13;;
54145;SDS011;65909;49.422;7.738;2023-04-09T04:46:58;17.75;;;8.65;;
54145;SDS011;65909;49.422;7.738;2023-04-09T04:49:24;15.35;;;8.20;;
54145;SDS011;65909;49.422;7.738;2023-04-09T04:51:49;16.55;;;8.23;;
54145;SDS011;65909;49.422;7.738;2023-04-09T04:54:15;17.98;;;9.00;;
54145;SDS011;65909;49.422;7.738;2023-04-09T04:56:40;17.75;;;8.68;;
54145;SDS011;65909;49.422;7.738;2023-04-09T04:59:05;16.55;;;8.13;;
54145;SDS011;65909;49.422;7.738;2023-04-09T05:01:31;15.07;;;8.52;;
54145;SDS011;65909;49.422;7.738;2023-04-09T05:03:56;21.13;;;8.73;;
54145;SDS011;65909;49.422;7.738;2023-04-09T05:06:22;12.85;;;7.55;;
54145;SDS011;65909;49.422;7.738;2023-04-09T05:08:47;18.55;;;8.98;;
54145;SDS011;65909;49.422;7.738;2023-04-09T05:11:12;16.63;;;8.43;;
54145;SDS011;65909;49.422;7.738;2023-04-09T05:13:39;13.48;;;7.95;;
54145;SDS011;65909;49.422;7.738;2023-04-09T05:16:05;18.08;;;8.98;;
54145;SDS011;65909;49.422;7.738;2023-04-09T05:18:31;15.60;;;8.45;;
54145;SDS011;65909;49.422;7.738;2023-04-09T05:20:56;21.08;;;8.88;;
54145;SDS011;65909;49.422;7.738;2023-04-09T05:23:21;14.82;;;8.50;;
54145;SDS011;65909;49.422;7.738;2023-04-09T05:25:47;16.35;;;8.38;;
54145;SDS011;65909;49.422;7.738;2023-04-09T05:28:13;15.95;;;8.20;;
54145;SDS011;65909;49.422;7.738;2023-04-09T05:30:40;12.93;;;7.68;;
54145;SDS011;65909;49.422;7.738;2023-04-09T05:33:09;15.57;;;9.00;;
54145;SDS011;65909;49.422;7.738;2023-04-09T05:35:37;15.05;;;8.43;;
54145;SDS011;65909;49.422;7.738;2023-04-09T05:38:03;17.05;;;8.10;;
54145;SDS011;65909;49.422;7.738;2023-04-09T05:40:28;16.10;;;9.30;;
54145;SDS011;65909;49.422;7.738;2023-04-09T05:42:53;16.40;;;8.27;;
54145;SDS011;65909;49.422;7.738;2023-04-09T05:45:21;16.55;;;9.05;;
54145;SDS011;65909;49.422;7.738;2023-04-09T05:47:47;18.55;;;8.57;;
54145;SDS011;65909;49.422;7.738;2023-04-09T05:50:12;18.23;;;8.27;;
54145;SDS011;65909;49.422;7.738;2023-04-09T05:52:38;15.52;;;8.57;;
54145;SDS011;65909;49.422;7.738;2023-04-09T05:55:03;17.90;;;8.40;;
54145;SDS011;65909;49.422;7.738;2023-04-09T05:57:30;16.67;;;8.32;;
54145;SDS011;65909;49.422;7.738;2023-04-09T05:59:56;15.35;;;8.85;;
54145;SDS011;65909;49.422;7.738;2023-04-09T06:02:22;15.27;;;8.70;;
54145;SDS011;65909;49.422;7.738;2023-04-09T06:04:49;19.83;;;9.13;;
54145;SDS011;65909;49.422;7.738;2023-04-09T06:07:14;15.90;;;8.73;;
54145;SDS011;65909;49.422;7.738;2023-04-09T06:09:40;16.05;;;9.23;;
54145;SDS011;65909;49.422;7.738;2023-04-09T06:12:05;15.55;;;8.55;;
54145;SDS011;65909;49.422;7.738;2023-04-09T06:14:30;16.75;;;7.93;;
54145;SDS011;65909;49.422;7.738;2023-04-09T06:16:57;14.38;;;8.35;;
54145;SDS011;65909;49.422;7.738;2023-04-09T06:19:23;17.00;;;8.65;;
54145;SDS011;65909;49.422;7.738;2023-04-09T06:21:48;17.33;;;9.32;;
54145;SDS011;65909;49.422;7.738;2023-04-09T06:24:14;18.92;;;9.27;;
54145;SDS011;65909;49.422;7.738;2023-04-09T06:26:39;16.30;;;9.13;;
54145;SDS011;65909;49.422;7.738;2023-04-09T06:29:04;16.10;;;8.13;;
54145;SDS011;65909;49.422;7.738;2023-04-09T06:31:30;19.38;;;8.75;;
54145;SDS011;65909;49.422;7.738;2023-04-09T06:33:55;18.88;;;8.50;;
54145;SDS011;65909;49.422;7.738;2023-04-09T06:36:21;17.45;;;8.70;;
54145;SDS011;65909;49.422;7.738;2023-04-09T06:38:46;17.67;;;9.73;;
54145;SDS011;65909;49.422;7.738;2023-04-09T06:41:12;17.67;;;8.93;;
54145;SDS011;65909;49.422;7.738;2023-04-09T06:43:38;17.23;;;8.48;;
54145;SDS011;65909;49.422;7.738;2023-04-09T06:46:04;16.40;;;8.75;;
54145;SDS011;65909;49.422;7.738;2023-04-09T06:48:30;17.67;;;8.55;;
54145;SDS011;65909;49.422;7.738;2023-04-09T06:50:55;18.30;;;9.43;;
54145;SDS011;65909;49.422;7.738;2023-04-09T06:53:21;17.40;;;9.65;;
54145;SDS011;65909;49.422;7.738;2023-04-09T06:55:46;16.88;;;8.77;;
54145;SDS011;65909;49.422;7.738;2023-04-09T06:58:12;16.08;;;9.45;;
54145;SDS011;65909;49.422;7.738;2023-04-09T07:00:37;16.45;;;8.63;;
54145;SDS011;65909;49.422;7.738;2023-04-09T07:03:03;17.05;;;9.02;;
54145;SDS011;65909;49.422;7.738;2023-04-09T07:05:29;17.67;;;9.20;;
54145;SDS011;65909;49.422;7.738;2023-04-09T07:07:55;15.55;;;8.65;;
54145;SDS011;65909;49.422;7.738;2023-04-09T07:10:20;19.45;;;9.27;;
54145;SDS011;65909;49.422;7.738;2023-04-09T07:12:46;18.02;;;9.40;;
54145;SDS011;65909;49.422;7.738;2023-04-09T07:15:11;14.45;;;8.77;;
54145;SDS011;65909;49.422;7.738;2023-04-09T07:17:36;17.92;;;10.25;;
54145;SDS011;65909;49.422;7.738;2023-04-09T07:20:02;15.63;;;8.80;;
54145;SDS011;65909;49.422;7.738;2023-04-09T07:22:28;19.55;;;10.02;;
54145;SDS011;65909;49.422;7.738;2023-04-09T07:24:54;18.00;;;9.95;;
54145;SDS011;65909;49.422;7.738;2023-04-09T07:27:23;17.05;;;9.13;;
54145;SDS011;65909;49.422;7.738;2023-04-09T07:29:50;16.98;;;9.18;;
54145;SDS011;65909;49.422;7.738;2023-04-09T07:32:15;15.82;;;9.02;;
54145;SDS011;65909;49.422;7.738;2023-04-09T07:34:44;16.92;;;9.02;;
54145;SDS011;65909;49.422;7.738;2023-04-09T07:37:09;17.45;;;9.07;;
54145;SDS011;65909;49.422;7.738;2023-04-09T07:39:35;17.23;;;9.80;;
54145;SDS011;65909;49.422;7.738;2023-04-09T07:42:01;18.55;;;9.82;;
54145;SDS011;65909;49.422;7.738;2023-04-09T07:44:28;17.55;;;9.15;;
54145;SDS011;65909;49.422;7.738;2023-04-09T07:46:53;17.20;;;9.20;;
54145;SDS011;65909;49.422;7.738;2023-04-09T07:49:18;17.80;;;10.32;;
54145;SDS011;65909;49.422;7.738;2023-04-09T07:51:46;17.55;;;10.25;;
54145;SDS011;65909;49.422;7.738;2023-04-09T07:54:11;17.10;;;9.75;;
54145;SDS011;65909;49.422;7.738;2023-04-09T07:56:36;16.92;;;10.10;;
54145;SDS011;65909;49.422;7.738;2023-04-09T07:59:02;16.83;;;9.50;;
54145;SDS011;65909;49.422;7.738;2023-04-09T08:01:27;16.77;;;9.70;;
54145;SDS011;65909;49.422;7.738;2023-04-09T08:03:53;17.10;;;9.70;;
54145;SDS011;65909;49.422;7.738;2023-04-09T08:06:18;17.23;;;9.95;;
54145;SDS011;65909;49.422;7.738;2023-04-09T08:08:43;18.25;;;10.52;;
54145;SDS011;65909;49.422;7.738;2023-04-09T08:11:09;15.13;;;9.45;;
54145;SDS011;65909;49.422;7.738;2023-04-09T08:13:34;17.40;;;10.30;;
54145;SDS011;65909;49.422;7.738;2023-04-09T08:16:00;16.80;;;10.10;;
54145;SDS011;65909;49.422;7.738;2023-04-09T08:18:26;16.38;;;10.52;;
54145;SDS011;65909;49.422;7.738;2023-04-09T08:20:52;18.00;;;11.05;;
54145;SDS011;65909;49.422;7.738;2023-04-09T08:23:17;19.33;;;10.80;;
54145;SDS011;65909;49.422;7.738;2023-04-09T08:25:42;16.27;;;10.05;;
54145;SDS011;65909;49.422;7.738;2023-04-09T08:28:08;18.25;;;10.45;;
54145;SDS011;65909;49.422;7.738;2023-04-09T08:30:33;17.75;;;10.40;;
54145;SDS011;65909;49.422;7.738;2023-04-09T08:33:01;16.50;;;9.82;;
54145;SDS011;65909;49.422;7.738;2023-04-09T08:35:28;15.88;;;10.18;;
54145;SDS011;65909;49.422;7.738;2023-04-09T08:37:54;15.98;;;9.70;;
54145;SDS011;65909;49.422;7.738;2023-04-09T08:40:20;18.55;;;9.95;;
54145;SDS011;65909;49.422;7.738;2023-04-09T08:42:46;17.08;;;10.27;;
54145;SDS011;65909;49.422;7.738;2023-04-09T08:45:18;15.55;;;10.10;;
54145;SDS011;65909;49.422;7.738;2023-04-09T08:47:43;15.95;;;9.95;;
54145;SDS011;65909;49.422;7.738;2023-04-09T08:50:12;17.73;;;11.63;;
54145;SDS011;65909;49.422;7.738;2023-04-09T08:52:38;16.35;;;9.60;;
54145;SDS011;65909;49.422;7.738;2023-04-09T08:55:04;14.82;;;9.27;;
54145;SDS011;65909;49.422;7.738;2023-04-09T08:57:35;16.50;;;9.70;;
54145;SDS011;65909;49.422;7.738;2023-04-09T09:00:04;16.00;;;10.30;;
54145;SDS011;65909;49.422;7.738;2023-04-09T09:02:30;15.65;;;10.70;;
54145;SDS011;65909;49.422;7.738;2023-04-09T09:04:55;13.32;;;9.85;;
54145;SDS011;65909;49.422;7.738;2023-04-09T09:07:24;16.55;;;9.73;;
54145;SDS011;65909;49.422;7.738;2023-04-09T09:12:31;14.85;;;9.88;;
54145;SDS011;65909;49.422;7.738;2023-04-09T09:14:57;18.00;;;10.77;;
54145;SDS011;65909;49.422;7.738;2023-04-09T09:17:22;13.75;;;9.38;;
54145;SDS011;65909;49.422;7.738;2023-04-09T09:19:48;15.93;;;9.57;;
54145;SDS011;65909;49.422;7.738;2023-04-09T09:22:13;17.77;;;10.23;;
54145;SDS011;65909;49.422;7.738;2023-04-09T09:24:49;16.27;;;9.90;;
54145;SDS011;65909;49.422;7.738;2023-04-09T09:30:04;15.23;;;10.38;;
54145;SDS011;65909;49.422;7.738;2023-04-09T09:32:31;15.38;;;10.23;;
54145;SDS011;65909;49.422;7.738;2023-04-09T09:35:00;14.68;;;9.95;;
54145;SDS011;65909;49.422;7.738;2023-04-09T09:37:27;12.85;;;9.23;;
54145;SDS011;65909;49.422;7.738;2023-04-09T09:39:53;15.10;;;10.02;;
54145;SDS011;65909;49.422;7.738;2023-04-09T09:42:19;13.98;;;9.60;;
54145;SDS011;65909;49.422;7.738;2023-04-09T09:44:44;13.80;;;9.73;;
54145;SDS011;65909;49.422;7.738;2023-04-09T09:47:11;13.40;;;9.40;;
54145;SDS011;65909;49.422;7.738;2023-04-09T09:49:39;14.15;;;9.70;;
54145;SDS011;65909;49.422;7.738;2023-04-09T09:52:09;12.82;;;9.40;;
54145;SDS011;65909;49.422;7.738;2023-04-09T09:54:38;14.23;;;9.98;;
54145;SDS011;65909;49.422;7.738;2023-04-09T09:57:06;15.25;;;9.80;;
54145;SDS011;65909;49.422;7.738;2023-04-09T09:59:36;12.93;;;9.48;;
54145;SDS011;65909;49.422;7.738;2023-04-09T10:02:04;12.18;;;9.27;;
54145;SDS011;65909;49.422;7.738;2023-04-09T10:04:36;13.73;;;9.65;;
54145;SDS011;65909;49.422;7.738;2023-04-09T10:07:03;12.95;;;9.30;;
54145;SDS011;65909;49.422;7.738;2023-04-09T10:09:30;13.85;;;9.35;;
54145;SDS011;65909;49.422;7.738;2023-04-09T10:11:59;12.93;;;9.57;;
54145;SDS011;65909;49.422;7.738;2023-04-09T10:14:24;12.52;;;8.80;;
54145;SDS011;65909;49.422;7.738;2023-04-09T10:16:52;13.98;;;9.32;;
54145;SDS011;65909;49.422;7.738;2023-04-09T10:19:18;13.63;;;8.30;;
54145;SDS011;65909;49.422;7.738;2023-04-09T10:24:09;12.98;;;8.90;;
54145;SDS011;65909;49.422;7.738;2023-04-09T10:26:38;10.05;;;7.45;;
54145;SDS011;65909;49.422;7.738;2023-04-09T10:29:05;12.15;;;7.85;;
54145;SDS011;65909;49.422;7.738;2023-04-09T10:31:45;13.30;;;8.32;;
54145;SDS011;65909;49.422;7.738;2023-04-09T10:34:19;11.77;;;8.40;;
54145;SDS011;65909;49.422;7.738;2023-04-09T10:36:56;12.25;;;8.52;;
54145;SDS011;65909;49.422;7.738;2023-04-09T10:39:26;14.65;;;8.95;;
54145;SDS011;65909;49.422;7.738;2023-04-09T10:41:54;13.10;;;8.15;;
54145;SDS011;65909;49.422;7.738;2023-04-09T10:44:21;14.32;;;8.93;;
54145;SDS011;65909;49.422;7.738;2023-04-09T10:46:48;12.57;;;8.27;;
54145;SDS011;65909;49.422;7.738;2023-04-09T10:49:17;13.25;;;8.40;;
54145;SDS011;65909;49.422;7.738;2023-04-09T10:51:51;13.77;;;9.15;;
54145;SDS011;65909;49.422;7.738;2023-04-09T10:59:45;13.57;;;9.05;;
54145;SDS011;65909;49.422;7.738;2023-04-09T11:08:09;12.85;;;8.50;;
54145;SDS011;65909;49.422;7.738;2023-04-09T11:10:41;11.65;;;7.38;;
54145;SDS011;65909;49.422;7.738;2023-04-09T11:13:15;12.70;;;9.20;;
54145;SDS011;65909;49.422;7.738;2023-04-09T11:15:42;13.27;;;8.32;;
54145;SDS011;65909;49.422;7.738;2023-04-09T11:18:12;13.95;;;7.63;;
54145;SDS011;65909;49.422;7.738;2023-04-09T11:20:48;14.07;;;8.50;;
54145;SDS011;65909;49.422;7.738;2023-04-09T11:23:14;10.48;;;7.13;;
54145;SDS011;65909;49.422;7.738;2023-04-09T11:25:41;13.70;;;8.02;;
54145;SDS011;65909;49.422;7.738;2023-04-09T11:28:06;12.68;;;7.05;;
54145;SDS011;65909;49.422;7.738;2023-04-09T11:30:32;11.95;;;7.65;;
54145;SDS011;65909;49.422;7.738;2023-04-09T11:32:59;11.77;;;7.30;;
54145;SDS011;65909;49.422;7.738;2023-04-09T11:35:25;11.23;;;7.05;;
54145;SDS011;65909;49.422;7.738;2023-04-09T11:37:50;12.32;;;8.18;;
54145;SDS011;65909;49.422;7.738;2023-04-09T11:40:20;10.68;;;7.55;;
54145;SDS011;65909;49.422;7.738;2023-04-09T11:42:51;12.38;;;7.10;;
54145;SDS011;65909;49.422;7.738;2023-04-09T11:45:18;13.23;;;8.10;;
54145;SDS011;65909;49.422;7.738;2023-04-09T11:47:47;11.23;;;7.32;;
54145;SDS011;65909;49.422;7.738;2023-04-09T11:50:13;11.35;;;7.72;;
54145;SDS011;65909;49.422;7.738;2023-04-09T11:52:39;10.95;;;7.50;;
54145;SDS011;65909;49.422;7.738;2023-04-09T11:55:06;10.00;;;6.75;;
54145;SDS011;65909;49.422;7.738;2023-04-09T11:57:39;10.68;;;7.63;;
54145;SDS011;65909;49.422;7.738;2023-04-09T12:00:07;11.30;;;7.40;;
54145;SDS011;65909;49.422;7.738;2023-04-09T12:02:36;9.20;;;6.72;;
54145;SDS011;65909;49.422;7.738;2023-04-09T12:05:02;11.98;;;7.90;;
54145;SDS011;65909;49.422;7.738;2023-04-09T12:07:34;11.60;;;7.93;;
54145;SDS011;65909;49.422;7.738;2023-04-09T12:10:06;9.75;;;7.10;;
54145;SDS011;65909;49.422;7.738;2023-04-09T12:12:41;12.63;;;6.93;;
54145;SDS011;65909;49.422;7.738;2023-04-09T12:15:17;11.30;;;6.93;;
54145;SDS011;65909;49.422;7.738;2023-04-09T12:17:48;10.15;;;6.70;;
54145;SDS011;65909;49.422;7.738;2023-04-09T12:20:36;9.15;;;7.28;;
54145;SDS011;65909;49.422;7.738;2023-04-09T12:23:04;11.07;;;6.85;;
54145;SDS011;65909;49.422;7.738;2023-04-09T12:25:33;11.63;;;6.97;;
54145;SDS011;65909;49.422;7.738;2023-04-09T12:28:00;11.43;;;7.35;;
54145;SDS011;65909;49.422;7.738;2023-04-09T12:30:27;9.93;;;7.57;;
54145;SDS011;65909;49.422;7.738;2023-04-09T12:32:52;10.75;;;7.40;;
54145;SDS011;65909;49.422;7.738;2023-04-09T12:35:19;11.40;;;7.43;;
54145;SDS011;65909;49.422;7.738;2023-04-09T12:37:46;11.15;;;7.22;;
54145;SDS011;65909;49.422;7.738;2023-04-09T12:40:11;10.13;;;6.40;;
54145;SDS011;65909;49.422;7.738;2023-04-09T12:42:43;8.73;;;6.03;;
54145;SDS011;65909;49.422;7.738;2023-04-09T12:45:11;9.38;;;6.28;;
54145;SDS011;65909;49.422;7.738;2023-04-09T12:47:37;10.45;;;6.93;;
54145;SDS011;65909;49.422;7.738;2023-04-09T12:50:03;8.52;;;5.97;;
54145;SDS011;65909;49.422;7.738;2023-04-09T12:52:29;8.98;;;6.18;;
54145;SDS011;65909;49.422;7.738;2023-04-09T12:54:55;8.05;;;5.53;;
54145;SDS011;65909;49.422;7.738;2023-04-09T12:57:20;9.80;;;6.03;;
54145;SDS011;65909;49.422;7.738;2023-04-09T12:59:46;8.35;;;5.85;;
54145;SDS011;65909;49.422;7.738;2023-04-09T13:02:11;7.22;;;5.13;;
54145;SDS011;65909;49.422;7.738;2023-04-09T13:04:37;6.90;;;4.68;;
54145;SDS011;65909;49.422;7.738;2023-04-09T13:07:02;6.55;;;4.80;;
54145;SDS011;65909;49.422;7.738;2023-04-09T13:09:27;6.65;;;4.63;;
54145;SDS011;65909;49.422;7.738;2023-04-09T13:11:53;6.20;;;4.78;;
54145;SDS011;65909;49.422;7.738;2023-04-09T13:14:18;7.00;;;4.40;;
54145;SDS011;65909;49.422;7.738;2023-04-09T13:16:43;7.95;;;4.85;;
54145;SDS011;65909;49.422;7.738;2023-04-09T13:19:09;7.85;;;4.78;;
54145;SDS011;65909;49.422;7.738;2023-04-09T13:21:35;6.25;;;4.10;;
54145;SDS011;65909;49.422;7.738;2023-04-09T13:24:01;5.72;;;4.63;;
54145;SDS011;65909;49.422;7.738;2023-04-09T13:26:27;6.25;;;4.50;;
54145;SDS011;65909;49.422;7.738;2023-04-09T13:28:53;6.35;;;4.75;;
54145;SDS011;65909;49.422;7.738;2023-04-09T13:31:18;7.03;;;4.72;;
54145;SDS011;65909;49.422;7.738;2023-04-09T13:33:44;5.82;;;4.45;;
54145;SDS011;65909;49.422;7.738;2023-04-09T13:36:09;6.30;;;4.43;;
54145;SDS011;65909;49.422;7.738;2023-04-09T13:38:36;6.63;;;5.18;;
54145;SDS011;65909;49.422;7.738;2023-04-09T13:41:01;6.45;;;4.82;;
54145;SDS011;65909;49.422;7.738;2023-04-09T13:43:26;6.68;;;5.25;;
54145;SDS011;65909;49.422;7.738;2023-04-09T13:45:53;8.82;;;5.50;;
54145;SDS011;65909;49.422;7.738;2023-04-09T13:48:19;8.43;;;5.35;;
54145;SDS011;65909;49.422;7.738;2023-04-09T13:50:45;7.75;;;5.50;;
54145;SDS011;65909;49.422;7.738;2023-04-09T13:53:10;6.63;;;5.20;;
54145;SDS011;65909;49.422;7.738;2023-04-09T13:55:36;6.75;;;4.93;;
54145;SDS011;65909;49.422;7.738;2023-04-09T13:58:03;6.78;;;5.20;;
54145;SDS011;65909;49.422;7.738;2023-04-09T14:00:28;6.68;;;4.97;;
54145;SDS011;65909;49.422;7.738;2023-04-09T14:02:55;6.22;;;5.20;;
54145;SDS011;65909;49.422;7.738;2023-04-09T14:05:20;6.60;;;4.82;;
54145;SDS011;65909;49.422;7.738;2023-04-09T14:07:45;8.35;;;5.45;;
54145;SDS011;65909;49.422;7.738;2023-04-09T14:10:11;7.10;;;4.95;;
54145;SDS011;65909;49.422;7.738;2023-04-09T14:12:36;6.95;;;4.65;;
54145;SDS011;65909;49.422;7.738;2023-04-09T14:15:01;7.13;;;4.55;;
54145;SDS011;65909;49.422;7.738;2023-04-09T14:17:27;7.57;;;4.85;;
54145;SDS011;65909;49.422;7.738;2023-04-09T14:19:52;7.03;;;4.93;;
54145;SDS011;65909;49.422;7.738;2023-04-09T14:22:18;6.18;;;4.50;;
54145;SDS011;65909;49.422;7.738;2023-04-09T14:24:43;5.85;;;4.72;;
54145;SDS011;65909;49.422;7.738;2023-04-09T14:27:08;8.25;;;5.32;;
54145;SDS011;65909;49.422;7.738;2023-04-09T14:29:34;6.10;;;4.68;;
54145;SDS011;65909;49.422;7.738;2023-04-09T14:31:59;7.22;;;4.40;;
54145;SDS011;65909;49.422;7.738;2023-04-09T14:34:25;5.90;;;4.40;;
54145;SDS011;65909;49.422;7.738;2023-04-09T14:36:53;5.95;;;4.63;;
54145;SDS011;65909;49.422;7.738;2023-04-09T14:39:18;7.22;;;4.38;;
54145;SDS011;65909;49.422;7.738;2023-04-09T14:41:43;6.05;;;4.78;;
54145;SDS011;65909;49.422;7.738;2023-04-09T14:44:09;6.47;;;4.95;;
54145;SDS011;65909;49.422;7.738;2023-04-09T14:46:34;5.32;;;4.20;;
54145;SDS011;65909;49.422;7.738;2023-04-09T14:49:00;5.22;;;3.70;;
54145;SDS011;65909;49.422;7.738;2023-04-09T14:51:26;7.28;;;4.45;;
54145;SDS011;65909;49.422;7.738;2023-04-09T14:53:54;5.90;;;4.60;;
54145;SDS011;65909;49.422;7.738;2023-04-09T14:56:19;7.25;;;4.90;;
54145;SDS011;65909;49.422;7.738;2023-04-09T14:58:45;6.88;;;5.03;;
54145;SDS011;65909;49.422;7.738;2023-04-09T15:01:10;8.52;;;5.47;;